createdAt,value
2022-11-28T00:04:05.468Z,12.38
2022-11-28T00:06:32.325Z,12.32
2022-11-28T00:08:59.966Z,11.60
2022-11-28T00:11:27.560Z,11.57
2022-11-28T00:13:54.704Z,12.80
2022-11-28T00:18:50.554Z,12.00
2022-11-28T00:21:18.521Z,11.95
2022-11-28T00:23:46.801Z,11.98
2022-11-28T00:26:19.656Z,12.82
2022-11-28T00:28:47.060Z,12.02
2022-11-28T00:31:19.012Z,11.35
2022-11-28T00:33:46.475Z,11.07
2022-11-28T00:36:13.849Z,11.45
2022-11-28T00:38:41.243Z,11.98
2022-11-28T00:41:11.691Z,10.90
2022-11-28T00:43:38.384Z,12.32
2022-11-28T00:46:05.328Z,12.63
2022-11-28T00:48:33.470Z,12.35
2022-11-28T00:51:17.487Z,11.02
2022-11-28T00:53:45.468Z,14.15
2022-11-28T00:56:13.974Z,10.02
2022-11-28T00:58:41.659Z,10.10
2022-11-28T01:01:10.816Z,11.05
2022-11-28T01:03:39.025Z,11.25
2022-11-28T01:06:06.636Z,10.85
2022-11-28T01:08:33.581Z,10.30
2022-11-28T01:11:00.961Z,11.13
2022-11-28T01:13:28.513Z,10.55
2022-11-28T01:15:55.528Z,9.95
2022-11-28T01:18:22.303Z,10.75
2022-11-28T01:20:49.013Z,10.38
2022-11-28T01:23:18.523Z,11.27
2022-11-28T01:25:45.314Z,11.50
2022-11-28T01:28:12.015Z,10.15
2022-11-28T01:30:39.108Z,10.73
2022-11-28T01:33:05.922Z,10.77
2022-11-28T01:35:32.650Z,10.68
2022-11-28T01:37:59.340Z,11.43
2022-11-28T01:40:26.060Z,10.75
2022-11-28T01:42:52.834Z,11.60
2022-11-28T01:45:31.343Z,12.93
2022-11-28T01:48:02.762Z,17.10
2022-11-28T01:50:33.149Z,19.23
2022-11-28T01:53:04.642Z,31.70
2022-11-28T01:55:35.530Z,22.92
2022-11-28T01:58:02.283Z,19.55
2022-11-28T02:00:29.219Z,17.17
2022-11-28T02:03:17.735Z,25.27
2022-11-28T02:08:11.388Z,28.63
2022-11-28T02:10:49.754Z,44.08
2022-11-28T02:13:41.289Z,25.73
2022-11-28T02:16:29.549Z,33.13
2022-11-28T02:19:23.295Z,36.08
2022-11-28T02:21:59.653Z,27.60
2022-11-28T02:24:32.453Z,29.85
2022-11-28T02:27:29.764Z,27.27
2022-11-28T02:30:22.076Z,27.50
2022-11-28T02:33:07.101Z,33.40
2022-11-28T02:35:55.351Z,28.83
2022-11-28T02:38:48.520Z,35.13
2022-11-28T02:41:22.939Z,40.58
2022-11-28T02:44:07.971Z,44.00
2022-11-28T02:46:44.482Z,52.50
2022-11-28T02:49:33.308Z,36.30
2022-11-28T02:52:07.407Z,36.28
2022-11-28T02:54:35.236Z,33.95
2022-11-28T02:57:03.107Z,36.60
2022-11-28T02:59:39.057Z,39.78
2022-11-28T03:02:12.596Z,34.17
2022-11-28T03:05:29.440Z,34.17
2022-11-28T03:08:04.769Z,30.77
2022-11-28T03:10:43.569Z,24.50
2022-11-28T03:13:21.137Z,34.63
2022-11-28T03:16:14.910Z,36.80
2022-11-28T03:18:50.729Z,34.85
2022-11-28T03:21:36.409Z,54.13
2022-11-28T03:24:26.585Z,26.67
2022-11-28T03:26:59.098Z,44.00
2022-11-28T03:29:43.171Z,30.70
2022-11-28T03:32:32.407Z,33.20
2022-11-28T03:35:06.508Z,44.83
2022-11-28T03:37:40.533Z,42.35
2022-11-28T03:40:12.323Z,31.98
2022-11-28T03:42:47.387Z,33.38
2022-11-28T03:45:26.628Z,38.60
2022-11-28T03:48:02.545Z,43.00
2022-11-28T03:50:37.389Z,34.05
2022-11-28T03:53:15.907Z,37.35
2022-11-28T03:55:49.621Z,27.85
2022-11-28T03:58:39.731Z,36.92
2022-11-28T04:01:20.947Z,39.95
2022-11-28T04:04:07.909Z,42.75
2022-11-28T04:06:43.688Z,58.53
2022-11-28T04:09:19.136Z,43.00
2022-11-28T04:11:56.523Z,31.45
2022-11-28T04:14:48.441Z,37.65
2022-11-28T04:17:22.796Z,34.50
2022-11-28T04:19:55.852Z,40.00
2022-11-28T04:22:37.582Z,32.97
2022-11-28T04:25:10.646Z,46.92
2022-11-28T04:27:47.781Z,37.05
2022-11-28T04:30:15.012Z,39.90
2022-11-28T04:32:50.276Z,51.58
2022-11-28T04:35:24.517Z,51.17
2022-11-28T04:37:52.719Z,42.65
2022-11-28T04:40:23.772Z,42.35
2022-11-28T04:42:57.547Z,35.92
2022-11-28T04:45:32.372Z,36.05
2022-11-28T04:47:59.788Z,42.33
2022-11-28T04:50:34.270Z,36.60
2022-11-28T04:53:07.697Z,27.45
2022-11-28T04:56:01.117Z,37.03
2022-11-28T04:58:42.036Z,25.85
2022-11-28T05:01:14.474Z,25.35
2022-11-28T05:03:42.924Z,30.40
2022-11-28T05:06:10.069Z,21.85
2022-11-28T05:08:37.061Z,42.17
2022-11-28T05:11:03.949Z,26.55
2022-11-28T05:13:30.723Z,26.60
2022-11-28T05:16:00.510Z,29.00
2022-11-28T05:18:27.294Z,47.60
2022-11-28T05:20:54.049Z,77.50
2022-11-28T05:23:20.761Z,26.27
2022-11-28T05:25:47.529Z,25.08
2022-11-28T05:28:14.185Z,26.70
2022-11-28T05:30:40.878Z,34.05
2022-11-28T05:33:07.976Z,30.95
2022-11-28T05:35:35.384Z,35.00
2022-11-28T05:38:02.059Z,35.13
2022-11-28T05:40:28.812Z,29.10
2022-11-28T05:42:55.520Z,29.02
2022-11-28T05:45:22.325Z,37.50
2022-11-28T05:47:49.042Z,38.60
2022-11-28T05:50:15.818Z,26.60
2022-11-28T05:52:42.564Z,30.73
2022-11-28T05:55:09.584Z,30.25
2022-11-28T05:57:36.271Z,28.75
2022-11-28T06:00:04.002Z,29.98
2022-11-28T06:02:38.359Z,25.65
2022-11-28T06:05:27.393Z,8.10
2022-11-28T06:07:52.429Z,34.35
2022-11-28T06:10:19.817Z,27.88
2022-11-28T06:12:46.505Z,45.17
2022-11-28T06:15:13.225Z,34.20
2022-11-28T06:17:39.947Z,29.42
2022-11-28T06:20:07.947Z,26.08
2022-11-28T06:22:35.606Z,29.30
2022-11-28T06:25:02.304Z,29.75
2022-11-28T06:27:29.216Z,28.48
2022-11-28T06:29:55.937Z,30.17
2022-11-28T06:32:22.682Z,29.10
2022-11-28T06:34:49.472Z,26.35
2022-11-28T06:37:16.216Z,26.60
2022-11-28T06:39:43.660Z,28.00
2022-11-28T06:42:10.892Z,29.73
2022-11-28T06:44:37.723Z,32.20
2022-11-28T06:47:04.529Z,30.50
2022-11-28T06:49:31.256Z,25.73
2022-11-28T06:51:57.985Z,23.90
2022-11-28T06:54:24.724Z,37.83
2022-11-28T06:56:51.432Z,31.27
2022-11-28T06:59:18.264Z,21.20
2022-11-28T07:01:45.464Z,25.55
2022-11-28T07:04:12.445Z,30.95
2022-11-28T07:06:39.300Z,36.78
2022-11-28T07:09:06.024Z,35.88
2022-11-28T07:11:33.190Z,30.90
2022-11-28T07:16:31.049Z,26.85
2022-11-28T07:18:59.265Z,28.52
2022-11-28T07:21:27.313Z,24.35
2022-11-28T07:23:54.405Z,28.00
2022-11-28T07:28:50.209Z,25.25
2022-11-28T07:31:18.436Z,16.27
2022-11-28T07:33:47.404Z,22.00
2022-11-28T07:36:18.502Z,17.75
2022-11-28T07:38:50.588Z,18.48
2022-11-28T07:41:21.287Z,24.88
2022-11-28T07:43:53.081Z,22.58
2022-11-28T07:46:20.288Z,18.38
2022-11-28T07:51:18.927Z,25.42
2022-11-28T07:53:46.116Z,17.20
2022-11-28T07:56:15.460Z,16.85
2022-11-28T07:58:44.256Z,22.88
2022-11-28T08:01:16.769Z,27.23
2022-11-28T08:03:47.222Z,12.07
2022-11-28T08:06:16.815Z,35.40
2022-11-28T08:08:44.297Z,10.73
2022-11-28T08:11:11.608Z,21.35
2022-11-28T08:16:08.063Z,5.53
2022-11-28T08:18:36.101Z,9.93
2022-11-28T08:21:04.366Z,24.40
2022-11-28T08:23:31.187Z,26.25
2022-11-28T08:25:57.957Z,13.00
2022-11-28T08:28:25.214Z,19.25
2022-11-28T08:33:19.248Z,8.25
2022-11-28T08:35:46.001Z,15.23
2022-11-28T08:38:13.596Z,37.22
2022-11-28T08:40:40.343Z,20.70
2022-11-28T08:43:08.091Z,17.25
2022-11-28T08:45:37.228Z,16.80
2022-11-28T08:48:05.330Z,20.77
2022-11-28T08:50:32.050Z,31.65
2022-11-28T08:53:01.738Z,12.90
2022-11-28T08:55:39.123Z,23.92
2022-11-28T08:58:08.606Z,10.90
2022-11-28T09:00:35.476Z,15.40
2022-11-28T09:03:02.319Z,27.70
2022-11-28T09:05:30.051Z,19.85
2022-11-28T09:07:56.830Z,12.15
2022-11-28T09:10:24.837Z,9.43
2022-11-28T09:12:53.017Z,6.50
2022-11-28T09:15:20.015Z,13.38
2022-11-28T09:17:46.883Z,9.23
2022-11-28T09:20:13.950Z,19.38
2022-11-28T09:22:42.683Z,12.18
2022-11-28T09:25:10.001Z,6.97
2022-11-28T09:27:36.895Z,16.83
2022-11-28T09:30:04.033Z,21.30
2022-11-28T09:32:30.807Z,8.55
2022-11-28T09:34:57.582Z,16.33
2022-11-28T09:37:24.425Z,18.98
2022-11-28T09:40:11.896Z,18.63
2022-11-28T09:42:44.577Z,34.65
2022-11-28T09:45:13.420Z,34.05
2022-11-28T09:47:42.911Z,39.45
2022-11-28T09:50:20.838Z,18.90
2022-11-28T09:53:03.736Z,15.48
2022-11-28T09:55:53.969Z,24.90
2022-11-28T09:58:26.804Z,20.33
2022-11-28T10:01:23.183Z,17.38
2022-11-28T10:03:58.585Z,18.58
2022-11-28T10:06:30.961Z,18.05
2022-11-28T10:09:22.890Z,18.45
2022-11-28T10:12:05.882Z,18.08
2022-11-28T10:14:57.150Z,24.38
2022-11-28T10:17:29.824Z,18.95
2022-11-28T10:20:10.744Z,18.17
2022-11-28T10:22:51.693Z,18.95
2022-11-28T10:25:38.053Z,17.67
2022-11-28T10:28:22.586Z,20.02
2022-11-28T10:31:13.916Z,25.55
2022-11-28T10:33:46.449Z,22.52
2022-11-28T10:36:20.909Z,19.73
2022-11-28T10:38:47.691Z,17.38
2022-11-28T10:41:24.615Z,17.42
2022-11-28T10:43:59.612Z,18.87
2022-11-28T10:46:44.566Z,18.50
2022-11-28T10:49:20.189Z,17.48
2022-11-28T10:52:09.864Z,18.30
2022-11-28T10:54:45.727Z,15.82
2022-11-28T10:57:20.981Z,15.82
2022-11-28T10:59:59.316Z,12.05
2022-11-28T11:02:41.377Z,13.52
2022-11-28T11:05:13.920Z,10.48
2022-11-28T11:07:46.368Z,13.65
2022-11-28T11:10:17.509Z,11.02
2022-11-28T11:12:44.862Z,12.25
2022-11-28T11:15:32.725Z,9.23
2022-11-28T11:18:23.823Z,8.20
2022-11-28T11:20:50.933Z,11.50
2022-11-28T11:23:18.903Z,8.27
2022-11-28T11:26:00.901Z,9.15
2022-11-28T11:28:38.652Z,12.10
2022-11-28T11:33:36.373Z,9.02
2022-11-28T11:36:04.972Z,11.65
2022-11-28T11:38:38.054Z,11.63
2022-11-28T11:41:29.818Z,10.43
2022-11-28T11:44:17.147Z,11.18
2022-11-28T11:47:08.006Z,7.95
2022-11-28T11:49:47.949Z,9.93
2022-11-28T11:52:20.943Z,9.30
2022-11-28T11:54:56.655Z,9.32
2022-11-28T11:57:44.850Z,8.05
2022-11-28T12:00:18.276Z,7.25
2022-11-28T12:02:55.353Z,9.65
2022-11-28T12:05:52.468Z,9.05
2022-11-28T12:08:35.785Z,9.88
2022-11-28T12:11:17.811Z,9.35
2022-11-28T12:13:45.092Z,6.88
2022-11-28T12:19:18.448Z,8.75
2022-11-28T12:22:12.132Z,13.82
2022-11-28T12:25:13.259Z,12.73
2022-11-28T12:28:10.563Z,13.70
2022-11-28T12:30:54.302Z,11.98
2022-11-28T12:33:39.272Z,13.25
2022-11-28T12:36:24.061Z,15.90
2022-11-28T12:39:00.395Z,10.63
2022-11-28T12:42:01.574Z,10.32
2022-11-28T12:44:54.348Z,11.95
2022-11-28T12:47:40.337Z,9.98
2022-11-28T12:50:26.663Z,11.50
2022-11-28T12:53:11.629Z,13.75
2022-11-28T12:55:48.465Z,17.90
2022-11-28T12:58:51.511Z,17.80
2022-11-28T13:01:41.866Z,11.77
2022-11-28T13:04:24.173Z,13.15
2022-11-28T13:07:28.203Z,15.00
2022-11-28T13:10:19.885Z,16.30
2022-11-28T13:13:09.003Z,7.50
2022-11-28T13:15:47.997Z,14.77
2022-11-28T13:18:38.483Z,15.57
2022-11-28T13:21:41.329Z,18.70
2022-11-28T13:24:25.697Z,9.23
2022-11-28T13:27:00.364Z,10.15
2022-11-28T13:29:54.164Z,9.32
2022-11-28T13:32:35.538Z,10.40
2022-11-28T13:35:03.223Z,10.18
2022-11-28T13:40:48.601Z,13.43
2022-11-28T13:43:33.474Z,14.65
2022-11-28T13:46:00.603Z,14.95
2022-11-28T13:51:30.871Z,12.63
2022-11-28T13:54:22.888Z,15.10
2022-11-28T13:57:15.366Z,11.98
2022-11-28T13:59:58.682Z,15.63
2022-11-28T14:02:42.230Z,11.20
2022-11-28T14:05:41.715Z,18.27
2022-11-28T14:08:23.204Z,15.40
2022-11-28T14:11:27.651Z,16.90
2022-11-28T14:14:01.123Z,17.10
2022-11-28T14:16:56.969Z,14.68
2022-11-28T14:19:30.932Z,14.98
2022-11-28T14:22:12.965Z,16.13
2022-11-28T14:25:04.785Z,20.73
2022-11-28T14:27:36.345Z,13.70
2022-11-28T14:30:06.624Z,20.95
2022-11-28T14:32:37.850Z,17.33
2022-11-28T14:35:10.524Z,25.33
2022-11-28T14:37:53.990Z,17.40
2022-11-28T14:40:56.961Z,19.05
2022-11-28T14:43:23.941Z,21.60
2022-11-28T14:45:52.584Z,22.42
2022-11-28T14:48:30.175Z,17.75
2022-11-28T14:51:01.878Z,22.20
2022-11-28T14:53:43.326Z,15.82
2022-11-28T14:56:30.708Z,16.55
2022-11-28T14:59:01.873Z,21.17
2022-11-28T15:02:01.756Z,23.15
2022-11-28T15:04:59.142Z,23.77
2022-11-28T15:07:43.439Z,26.58
2022-11-28T15:10:29.829Z,24.92
2022-11-28T15:13:05.827Z,24.48
2022-11-28T15:15:32.639Z,26.58
2022-11-28T15:18:02.260Z,30.17
2022-11-28T15:20:36.228Z,29.02
2022-11-28T15:23:03.155Z,30.65
2022-11-28T15:25:37.404Z,30.60
2022-11-28T15:28:19.261Z,29.50
2022-11-28T15:30:48.781Z,24.48
2022-11-28T15:33:16.139Z,26.13
2022-11-28T15:35:58.384Z,23.75
2022-11-28T15:38:26.443Z,26.63
2022-11-28T15:40:55.745Z,28.77
2022-11-28T15:43:23.995Z,24.60
2022-11-28T15:45:58.571Z,21.70
2022-11-28T15:48:39.262Z,26.27
2022-11-28T15:51:08.271Z,23.02
2022-11-28T15:53:42.237Z,27.05
2022-11-28T15:56:13.725Z,26.08
2022-11-28T15:58:42.974Z,23.27
2022-11-28T16:01:15.757Z,25.60
2022-11-28T16:04:04.977Z,29.42
2022-11-28T16:06:35.396Z,27.33
2022-11-28T16:09:07.131Z,18.80
2022-11-28T16:11:35.732Z,22.65
2022-11-28T16:14:09.264Z,27.42
2022-11-28T16:16:39.067Z,26.25
2022-11-28T16:19:28.624Z,27.25
2022-11-28T16:22:00.241Z,25.45
2022-11-28T16:24:33.943Z,25.13
2022-11-28T16:27:07.191Z,28.25
2022-11-28T16:29:36.096Z,24.95
2022-11-28T16:32:09.696Z,23.98
2022-11-28T16:34:48.255Z,21.27
2022-11-28T16:37:23.691Z,26.35
2022-11-28T16:40:00.756Z,28.45
2022-11-28T16:42:28.056Z,26.48
2022-11-28T16:47:28.041Z,24.45
2022-11-28T16:50:16.019Z,25.77
2022-11-28T16:52:53.966Z,23.73
2022-11-28T16:55:33.111Z,24.85
2022-11-28T16:58:08.842Z,25.05
2022-11-28T17:00:36.849Z,23.60
2022-11-28T17:03:06.443Z,23.30
2022-11-28T17:05:35.878Z,23.48
2022-11-28T17:08:02.609Z,20.42
2022-11-28T17:10:29.514Z,27.00
2022-11-28T17:12:56.284Z,25.55
2022-11-28T17:15:23.646Z,23.13
2022-11-28T17:17:50.422Z,22.23
2022-11-28T17:20:18.428Z,25.15
2022-11-28T17:22:51.576Z,24.95
2022-11-28T17:25:21.446Z,24.92
2022-11-28T17:27:49.558Z,25.95
2022-11-28T17:30:18.895Z,22.40
2022-11-28T17:32:52.603Z,25.67
2022-11-28T17:35:24.767Z,26.90
2022-11-28T17:37:51.448Z,27.98
2022-11-28T17:40:33.116Z,25.55
2022-11-28T17:43:01.264Z,26.00
2022-11-28T17:45:30.348Z,26.02
2022-11-28T17:47:57.195Z,27.55
2022-11-28T17:50:23.932Z,25.23
2022-11-28T17:52:50.743Z,25.65
2022-11-28T17:55:18.571Z,24.73
2022-11-28T17:57:45.262Z,25.77
2022-11-28T18:02:44.956Z,23.75
2022-11-28T18:05:11.839Z,27.48
2022-11-28T18:07:40.011Z,24.67
2022-11-28T18:10:10.799Z,27.67
2022-11-28T18:12:39.107Z,23.83
2022-11-28T18:15:07.781Z,26.83
2022-11-28T18:17:34.550Z,25.02
2022-11-28T18:20:02.109Z,25.48
2022-11-28T18:22:28.983Z,25.85
2022-11-28T18:24:55.724Z,29.92
2022-11-28T18:27:22.513Z,33.72
2022-11-28T18:29:49.177Z,31.60
2022-11-28T18:32:15.876Z,35.47
2022-11-28T18:34:42.847Z,36.58
2022-11-28T18:37:10.786Z,26.80
2022-11-28T18:39:37.605Z,26.92
2022-11-28T18:42:04.921Z,26.58
2022-11-28T18:44:31.729Z,26.60
2022-11-28T18:46:58.695Z,25.13
2022-11-28T18:49:25.620Z,28.17
2022-11-28T18:51:54.739Z,27.20
2022-11-28T18:54:22.204Z,35.10
2022-11-28T18:56:49.524Z,28.85
2022-11-28T18:59:16.467Z,28.05
2022-11-28T19:01:43.341Z,29.52
2022-11-28T19:04:12.461Z,26.75
2022-11-28T19:06:40.516Z,33.85
2022-11-28T19:09:10.825Z,30.05
2022-11-28T19:11:37.939Z,35.00
2022-11-28T19:14:06.675Z,27.23
2022-11-28T19:16:36.731Z,27.17
2022-11-28T19:19:05.365Z,27.95
2022-11-28T19:21:35.260Z,27.40
2022-11-28T19:24:02.940Z,26.90
2022-11-28T19:26:30.987Z,26.95
2022-11-28T19:28:59.916Z,25.73
2022-11-28T19:31:30.077Z,26.88
2022-11-28T19:34:11.194Z,25.50
2022-11-28T19:36:41.023Z,27.73
2022-11-28T19:39:09.578Z,27.20
2022-11-28T19:41:36.388Z,28.77
2022-11-28T19:44:03.146Z,27.92
2022-11-28T19:46:35.029Z,28.05
2022-11-28T19:49:07.441Z,26.60
2022-11-28T19:51:34.867Z,27.63
2022-11-28T19:54:03.781Z,28.70
2022-11-28T19:56:32.464Z,28.58
2022-11-28T19:58:59.987Z,29.75
2022-11-28T20:01:28.314Z,26.98
2022-11-28T20:03:55.541Z,27.35
2022-11-28T20:06:30.871Z,31.98
2022-11-28T20:09:01.345Z,28.60
2022-11-28T20:11:34.448Z,29.17
2022-11-28T20:14:12.041Z,28.38
2022-11-28T20:16:40.317Z,31.17
2022-11-28T20:21:34.416Z,28.52
2022-11-28T20:26:39.663Z,26.58
2022-11-28T20:29:07.331Z,32.22
2022-11-28T20:31:45.219Z,32.30
2022-11-28T20:34:13.803Z,31.65
2022-11-28T20:36:44.106Z,34.22
2022-11-28T20:39:12.484Z,51.33
2022-11-28T20:41:39.676Z,43.35
2022-11-28T20:46:35.833Z,35.08
2022-11-28T20:49:05.768Z,35.25
2022-11-28T20:51:35.351Z,35.38
2022-11-28T20:54:05.120Z,37.95
2022-11-28T20:56:51.554Z,36.47
2022-11-28T20:59:22.245Z,36.08
2022-11-28T21:01:49.402Z,37.03
2022-11-28T21:06:47.162Z,35.80
2022-11-28T21:09:15.482Z,35.25
2022-11-28T21:11:56.820Z,38.22
2022-11-28T21:14:25.010Z,33.70
2022-11-28T21:19:18.773Z,34.10
2022-11-28T21:21:45.480Z,36.70
2022-11-28T21:24:13.705Z,34.75
2022-11-28T21:26:45.315Z,35.67
2022-11-28T21:29:16.648Z,36.70
2022-11-28T21:31:45.299Z,36.97
2022-11-28T21:34:17.071Z,41.38
2022-11-28T21:36:44.559Z,100.95
2022-11-28T21:39:16.504Z,41.38
2022-11-28T21:41:43.295Z,36.97
2022-11-28T21:44:10.179Z,36.75
2022-11-28T21:46:37.837Z,39.88
2022-11-28T21:49:05.659Z,36.53
2022-11-28T21:51:35.728Z,34.92
2022-11-28T21:54:02.791Z,36.28
2022-11-28T21:56:31.039Z,37.95
2022-11-28T22:01:24.961Z,39.50
2022-11-28T22:03:53.579Z,36.65
2022-11-28T22:06:24.558Z,37.22
2022-11-28T22:08:52.441Z,36.00
2022-11-28T22:11:20.918Z,35.05
2022-11-28T22:13:49.048Z,37.83
2022-11-28T22:16:22.062Z,37.80
2022-11-28T22:18:50.324Z,38.20
2022-11-28T22:24:05.381Z,38.20
2022-11-28T22:28:58.970Z,34.20
2022-11-28T22:31:25.864Z,38.28
2022-11-28T22:33:52.917Z,37.95
2022-11-28T22:36:21.337Z,32.75
2022-11-28T22:38:49.513Z,32.83
2022-11-28T22:41:24.777Z,35.42
2022-11-28T22:43:56.707Z,37.33
2022-11-28T22:46:23.864Z,32.45
2022-11-28T22:48:51.916Z,35.13
2022-11-28T22:51:24.737Z,34.33
2022-11-28T22:53:55.929Z,36.17
2022-11-28T22:56:25.696Z,37.45
2022-11-28T22:58:52.875Z,37.70
2022-11-28T23:01:25.180Z,37.20
2022-11-28T23:03:52.453Z,34.35
2022-11-28T23:08:52.558Z,36.67
2022-11-28T23:11:22.337Z,35.95
2022-11-28T23:13:50.099Z,33.75
2022-11-28T23:16:21.136Z,34.30
2022-11-28T23:18:50.040Z,34.38
2022-11-28T23:21:18.720Z,37.20
2022-11-28T23:23:46.050Z,34.95
2022-11-28T23:26:17.020Z,32.45
2022-11-28T23:28:44.532Z,37.65
2022-11-28T23:31:38.839Z,37.55
2022-11-28T23:34:06.614Z,36.05
2022-11-28T23:36:41.525Z,35.38
2022-11-28T23:39:20.344Z,35.35
2022-11-28T23:41:47.787Z,36.05
2022-11-28T23:44:16.667Z,38.28
2022-11-28T23:46:44.229Z,37.03
2022-11-28T23:49:12.283Z,36.80
2022-11-28T23:51:42.814Z,34.92
2022-11-28T23:54:11.141Z,36.35
2022-11-28T23:56:39.685Z,35.88
2022-11-28T23:59:08.225Z,40.60
